Time;durP1;ratioP1;P1;durP2;ratioP2;P2;SDS_P1;SDS_P2;PMS_P1;PMS_P2;Temp;Humidity;BMP_temperature;BMP_pressure;BME280_temperature;BME280_humidity;BME280_pressure;Samples;Min_cycle;Max_cycle;Signal;HPM_P1;HPM_P2
2022/07/04 00:02:14;;;;;;;4.50;1.60;;;18.40;99.90;;;;;;4991345;28;20405;-73
2022/07/04 00:04:40;;;;;;;6.83;1.67;;;18.40;99.90;;;;;;4994080;28;20396;-73
2022/07/04 00:07:05;;;;;;;6.53;1.90;;;18.40;99.90;;;;;;4992760;28;20393;-73
2022/07/04 00:09:31;;;;;;;6.20;2.20;;;18.50;99.90;;;;;;4990901;28;20373;-74
2022/07/04 00:11:56;;;;;;;6.17;1.80;;;18.40;99.90;;;;;;4990944;28;20396;-72
2022/07/04 00:14:22;;;;;;;7.20;2.13;;;18.40;99.90;;;;;;4990652;28;20804;-73
2022/07/04 00:16:47;;;;;;;3.80;2.00;;;18.40;99.90;;;;;;4989569;28;20914;-71
2022/07/04 00:19:13;;;;;;;4.65;2.05;;;18.40;99.90;;;;;;5007463;28;20391;-71
2022/07/04 00:21:38;;;;;;;5.17;2.00;;;18.30;99.90;;;;;;4989929;28;20411;-72
2022/07/04 00:24:05;;;;;;;6.10;2.50;;;18.30;99.90;;;;;;4990738;28;20446;-73
2022/07/04 00:26:30;;;;;;;7.65;2.33;;;18.20;99.90;;;;;;4990723;28;20696;-72
2022/07/04 00:28:56;;;;;;;7.18;2.05;;;18.10;99.90;;;;;;4991002;28;20420;-72
2022/07/04 00:31:21;;;;;;;4.40;1.80;;;18.20;99.90;;;;;;4991039;28;20471;-72
2022/07/04 00:33:47;;;;;;;5.57;2.13;;;18.30;99.90;;;;;;4991594;28;20416;-72
2022/07/04 00:36:13;;;;;;;4.78;2.40;;;18.30;99.90;;;;;;4992817;28;20475;-72
2022/07/04 00:38:38;;;;;;;6.15;2.47;;;18.20;99.90;;;;;;4989831;28;20426;-72
2022/07/04 00:41:04;;;;;;;5.30;2.43;;;18.20;99.90;;;;;;5022480;28;20664;-72
2022/07/04 00:43:30;;;;;;;8.32;2.83;;;18.20;99.90;;;;;;5023347;28;20494;-73
2022/07/04 00:45:56;;;;;;;5.47;2.72;;;18.20;99.90;;;;;;5023315;28;20395;-72
2022/07/04 00:48:22;;;;;;;7.43;2.78;;;18.20;99.90;;;;;;5023626;28;20414;-73
2022/07/04 00:50:48;;;;;;;7.97;2.90;;;18.10;99.90;;;;;;5024812;28;20406;-72
2022/07/04 00:53:14;;;;;;;4.85;2.50;;;18.00;99.90;;;;;;5025902;28;20723;-73
2022/07/04 00:55:40;;;;;;;5.45;2.30;;;18.00;99.90;;;;;;5025214;28;20931;-72
2022/07/04 00:58:07;;;;;;;6.07;2.80;;;18.00;99.90;;;;;;5024060;28;20402;-73
2022/07/04 01:00:33;;;;;;;4.53;2.90;;;17.90;99.90;;;;;;5025665;28;20501;-73
2022/07/04 01:02:59;;;;;;;6.00;3.22;;;17.90;99.90;;;;;;4992839;28;20405;-74
2022/07/04 01:05:25;;;;;;;6.80;3.20;;;17.90;99.90;;;;;;5023894;28;20394;-72
2022/07/04 01:07:51;;;;;;;7.47;3.33;;;18.00;99.90;;;;;;5025969;28;20402;-72
2022/07/04 01:10:16;;;;;;;8.50;3.47;;;18.00;99.90;;;;;;5024905;28;20547;-72
2022/07/04 01:12:42;;;;;;;7.50;3.50;;;17.90;99.90;;;;;;4991788;28;20401;-73
2022/07/04 01:15:08;;;;;;;5.75;3.63;;;17.90;99.90;;;;;;4993953;28;20508;-73
2022/07/04 01:17:34;;;;;;;5.85;3.42;;;17.80;99.90;;;;;;5025030;28;20410;-73
2022/07/04 01:19:59;;;;;;;5.93;3.47;;;17.80;99.90;;;;;;4992101;28;20426;-73
2022/07/04 01:22:25;;;;;;;5.40;3.70;;;17.70;99.90;;;;;;5024910;28;20473;-73
2022/07/04 01:24:51;;;;;;;5.53;3.65;;;17.70;99.90;;;;;;5024196;28;20387;-73
2022/07/04 01:27:18;;;;;;;6.18;3.42;;;17.70;99.90;;;;;;5024474;28;20394;-73
2022/07/04 01:29:43;;;;;;;7.93;4.10;;;17.60;99.90;;;;;;4992537;28;20578;-73
2022/07/04 01:32:10;;;;;;;7.53;4.40;;;17.50;99.90;;;;;;5023303;28;20437;-72
2022/07/04 01:34:35;;;;;;;6.80;3.90;;;17.50;99.90;;;;;;4992169;28;20391;-72
2022/07/04 01:37:02;;;;;;;7.20;4.67;;;17.50;99.90;;;;;;5025996;28;20532;-73
2022/07/04 01:39:28;;;;;;;6.18;4.63;;;17.40;99.90;;;;;;4995097;28;20819;-72
2022/07/04 01:41:54;;;;;;;8.57;4.97;;;17.40;99.90;;;;;;5010790;28;20400;-72
2022/07/04 01:44:21;;;;;;;7.32;5.10;;;17.40;99.90;;;;;;4990632;28;21716;-72
2022/07/04 01:46:47;;;;;;;7.90;5.10;;;17.40;99.90;;;;;;5009798;28;20930;-71
2022/07/04 01:49:13;;;;;;;10.47;5.43;;;17.40;99.90;;;;;;4994610;28;20911;-71
2022/07/04 01:51:50;;;;;;;8.75;5.90;;;17.50;99.90;;;;;;5011555;28;20498;-72
2022/07/04 01:54:15;;;;;;;7.22;5.53;;;17.40;99.90;;;;;;4994684;28;20792;-73
2022/07/04 01:56:41;;;;;;;9.13;6.03;;;17.40;99.90;;;;;;4994754;28;20400;-72
2022/07/04 01:59:08;;;;;;;6.93;5.32;;;17.40;99.90;;;;;;4993884;28;20392;-72
2022/07/04 02:01:34;;;;;;;5.85;5.22;;;17.30;99.90;;;;;;5010393;28;20401;-72
2022/07/04 02:04:01;;;;;;;11.13;6.35;;;17.20;99.90;;;;;;4994488;28;20397;-72
2022/07/04 02:06:28;;;;;;;8.65;5.90;;;17.30;99.90;;;;;;4994066;28;20476;-72
2022/07/04 02:14:23;;;;;;;11.02;7.10;;;17.10;99.90;;;;;;5011920;28;20679;-72
2022/07/04 02:16:49;;;;;;;10.38;6.80;;;17.00;99.90;;;;;;4994244;28;20823;-73
2022/07/04 02:19:14;;;;;;;8.20;6.53;;;17.00;99.90;;;;;;4993659;28;20470;-73
2022/07/04 02:21:40;;;;;;;12.00;7.03;;;17.00;99.90;;;;;;4993705;28;20401;-73
2022/07/04 02:24:06;;;;;;;8.13;6.72;;;17.00;99.90;;;;;;4992049;28;20397;-73
2022/07/04 02:26:31;;;;;;;10.97;7.40;;;16.90;99.90;;;;;;4993109;28;20657;-73
2022/07/04 02:28:57;;;;;;;8.77;7.20;;;16.90;99.90;;;;;;4993305;28;20804;-72
2022/07/04 02:31:23;;;;;;;9.68;7.07;;;16.90;99.90;;;;;;4994000;28;20393;-72
2022/07/04 02:33:48;;;;;;;8.82;6.80;;;16.90;99.90;;;;;;5028191;28;20400;-72
2022/07/04 02:36:14;;;;;;;7.20;6.50;;;16.90;99.90;;;;;;4994290;28;20462;-72
2022/07/04 02:38:40;;;;;;;10.38;6.50;;;16.90;99.90;;;;;;5011909;28;20448;-72
2022/07/04 02:41:05;;;;;;;9.95;6.50;;;16.90;99.90;;;;;;5012234;28;20450;-73
2022/07/04 02:43:31;;;;;;;11.00;6.60;;;16.90;99.90;;;;;;4994743;28;20700;-72
2022/07/04 02:45:56;;;;;;;9.23;6.90;;;16.80;99.90;;;;;;4993551;28;20444;-72
2022/07/04 02:48:22;;;;;;;7.50;6.50;;;16.80;99.90;;;;;;4994817;28;20836;-73
2022/07/04 02:50:47;;;;;;;9.03;6.00;;;16.70;99.90;;;;;;4994671;28;20484;-73
2022/07/04 02:53:13;;;;;;;7.10;6.00;;;16.80;99.90;;;;;;5026528;28;20515;-73
2022/07/04 02:55:38;;;;;;;9.20;6.00;;;16.80;99.90;;;;;;5025867;28;20385;-72
2022/07/04 02:58:04;;;;;;;6.57;5.53;;;16.70;99.90;;;;;;4991381;28;20596;-73
2022/07/04 03:00:29;;;;;;;8.50;6.00;;;16.70;99.90;;;;;;4990688;28;20408;-73
2022/07/04 03:02:55;;;;;;;7.68;5.38;;;16.70;99.90;;;;;;4991586;28;20397;-72
2022/07/04 03:05:20;;;;;;;7.07;5.47;;;16.80;99.90;;;;;;5008918;28;20661;-72
2022/07/04 03:07:46;;;;;;;8.00;5.15;;;16.70;99.90;;;;;;4992464;28;20568;-73
2022/07/04 03:10:12;;;;;;;8.60;5.05;;;16.60;99.90;;;;;;5009714;28;20415;-73
2022/07/04 03:12:37;;;;;;;6.93;5.00;;;16.70;99.90;;;;;;4993210;28;20546;-73
2022/07/04 03:15:04;;;;;;;8.45;4.70;;;16.70;99.90;;;;;;4991656;28;20859;-72
2022/07/04 03:17:30;;;;;;;7.13;4.63;;;16.70;99.90;;;;;;5010890;28;20780;-73
2022/07/04 03:19:56;;;;;;;7.15;4.55;;;16.70;99.90;;;;;;4994420;28;20443;-73
2022/07/04 03:22:22;;;;;;;6.50;4.95;;;16.70;99.90;;;;;;4991047;28;20648;-72
2022/07/04 03:24:48;;;;;;;7.30;4.60;;;16.60;99.90;;;;;;5009576;28;20845;-73
2022/07/04 03:27:13;;;;;;;8.15;4.63;;;16.60;99.90;;;;;;4992706;28;20989;-73
2022/07/04 03:29:39;;;;;;;6.57;4.47;;;16.60;99.90;;;;;;5023919;28;20413;-73
2022/07/04 03:32:05;;;;;;;6.50;4.67;;;16.60;99.90;;;;;;4989979;28;20810;-73
2022/07/04 03:34:31;;;;;;;5.50;4.73;;;16.60;99.90;;;;;;5008515;28;20404;-72
2022/07/04 03:36:57;;;;;;;7.73;5.03;;;16.60;99.90;;;;;;5026429;28;20389;-72
2022/07/04 03:39:22;;;;;;;8.77;5.40;;;16.50;99.90;;;;;;5013052;28;20549;-72
2022/07/04 03:41:48;;;;;;;7.45;5.53;;;16.50;99.90;;;;;;4995846;28;20388;-73
2022/07/04 03:44:14;;;;;;;7.88;5.65;;;16.50;99.90;;;;;;4995765;28;20486;-73
2022/07/04 03:46:39;;;;;;;8.10;6.03;;;16.50;99.90;;;;;;5028710;28;20808;-73
2022/07/04 03:49:05;;;;;;;8.13;6.50;;;16.50;99.90;;;;;;5013021;28;20411;-73
2022/07/04 03:51:31;;;;;;;8.93;6.28;;;16.40;99.90;;;;;;4995324;28;20494;-73
2022/07/04 03:53:57;;;;;;;7.37;6.57;;;16.50;99.90;;;;;;4996805;28;20403;-73
2022/07/04 03:56:31;;;;;;;8.87;7.17;;;16.50;99.90;;;;;;4997194;28;20499;-74
2022/07/04 03:58:57;;;;;;;8.20;7.40;;;16.40;99.90;;;;;;4995988;28;20393;-72
2022/07/04 04:01:23;;;;;;;7.63;6.82;;;16.40;99.90;;;;;;5011622;28;20411;-73
2022/07/04 04:06:32;;;;;;;10.17;7.30;;;16.40;99.90;;;;;;5014326;28;20395;-71
2022/07/04 04:08:58;;;;;;;7.90;7.00;;;16.40;99.90;;;;;;4997126;28;20393;-72
2022/07/04 04:11:23;;;;;;;8.88;7.25;;;16.50;99.90;;;;;;4995100;28;20475;-72
2022/07/04 04:13:49;;;;;;;8.20;7.33;;;16.50;99.90;;;;;;4996367;28;20972;-72
2022/07/04 04:16:15;;;;;;;10.68;7.30;;;16.40;99.90;;;;;;4996604;28;20384;-72
2022/07/04 04:18:40;;;;;;;10.13;6.95;;;16.50;99.90;;;;;;5013843;28;20459;-72
2022/07/04 04:21:06;;;;;;;8.37;6.73;;;16.50;99.90;;;;;;5029750;28;20702;-72
2022/07/04 04:23:32;;;;;;;7.90;7.07;;;16.60;99.90;;;;;;5012938;28;20485;-72
2022/07/04 04:25:57;;;;;;;8.40;6.37;;;16.60;99.90;;;;;;4996386;28;20882;-71
2022/07/04 04:28:23;;;;;;;7.88;6.13;;;16.50;99.90;;;;;;4995572;28;20760;-72
2022/07/04 04:30:50;;;;;;;10.27;6.23;;;16.60;99.90;;;;;;4992512;28;20396;-72
2022/07/04 04:33:15;;;;;;;6.40;5.20;;;16.50;99.90;;;;;;4992335;28;20503;-72
2022/07/04 04:35:41;;;;;;;7.53;5.32;;;16.50;99.90;;;;;;5010562;28;20408;-72
2022/07/04 04:38:07;;;;;;;7.70;5.20;;;16.60;99.90;;;;;;5010822;28;20420;-72
2022/07/04 04:40:33;;;;;;;8.25;5.30;;;16.60;99.90;;;;;;4992738;28;20408;-72
2022/07/04 04:42:58;;;;;;;7.22;5.10;;;16.70;99.90;;;;;;4991506;28;20466;-72
2022/07/04 04:45:24;;;;;;;7.90;5.10;;;16.70;99.90;;;;;;4990342;28;20673;-72
2022/07/04 04:47:49;;;;;;;6.47;4.47;;;16.60;99.90;;;;;;5007297;28;20415;-72
2022/07/04 04:50:15;;;;;;;6.70;4.47;;;16.60;99.90;;;;;;4990330;28;20496;-71
2022/07/04 04:52:43;;;;;;;6.43;4.20;;;16.70;99.90;;;;;;4987178;28;20384;-72
2022/07/04 04:55:09;;;;;;;6.40;4.43;;;16.80;99.90;;;;;;5004657;28;20696;-72
2022/07/04 04:57:34;;;;;;;7.40;5.00;;;16.80;99.90;;;;;;4988587;28;20389;-73
2022/07/04 05:00:01;;;;;;;5.97;4.93;;;16.80;99.90;;;;;;4986759;28;20824;-72
2022/07/04 05:02:27;;;;;;;9.23;5.50;;;16.80;99.90;;;;;;4987636;28;20857;-72
2022/07/04 05:04:53;;;;;;;7.25;5.20;;;16.80;99.90;;;;;;5006000;28;20417;-72
2022/07/04 05:07:19;;;;;;;6.72;4.85;;;16.70;99.90;;;;;;4989659;28;20424;-71
2022/07/04 05:09:44;;;;;;;5.47;4.30;;;16.70;99.90;;;;;;4988622;28;20642;-72
2022/07/04 05:12:13;;;;;;;6.00;4.10;;;16.80;99.90;;;;;;4988903;28;20910;-72
2022/07/04 05:14:39;;;;;;;5.20;4.00;;;16.90;99.90;;;;;;4990231;28;20472;-71
2022/07/04 05:17:04;;;;;;;5.70;4.55;;;17.00;99.90;;;;;;4989320;28;20503;-72
2022/07/04 05:19:30;;;;;;;5.97;4.33;;;16.90;99.90;;;;;;4989414;28;20489;-71
2022/07/04 05:21:55;;;;;;;6.43;4.30;;;16.90;99.90;;;;;;4989557;28;20404;-72
2022/07/04 05:24:21;;;;;;;6.10;4.00;;;16.90;99.90;;;;;;4990083;28;20393;-72
2022/07/04 05:26:46;;;;;;;6.07;4.30;;;16.80;99.90;;;;;;4989082;28;20472;-72
2022/07/04 05:29:12;;;;;;;7.53;4.35;;;16.80;99.90;;;;;;4990962;28;20792;-72
2022/07/04 05:31:38;;;;;;;6.37;3.47;;;16.80;99.90;;;;;;4988919;28;20407;-72
2022/07/04 05:34:03;;;;;;;5.50;3.70;;;16.90;99.90;;;;;;4989494;28;20408;-72
2022/07/04 05:36:29;;;;;;;5.05;3.40;;;16.90;99.90;;;;;;4989672;28;20740;-73
2022/07/04 05:38:54;;;;;;;3.90;3.10;;;16.90;99.90;;;;;;4985837;28;20426;-72
2022/07/04 05:41:20;;;;;;;5.70;3.13;;;17.00;99.90;;;;;;4985858;28;20441;-71
2022/07/04 05:43:46;;;;;;;4.80;3.17;;;16.80;99.90;;;;;;4983778;28;20386;-72
2022/07/04 05:46:11;;;;;;;4.77;2.90;;;16.80;99.90;;;;;;5015158;28;20480;-72
2022/07/04 05:48:37;;;;;;;4.57;2.85;;;16.90;99.90;;;;;;4978727;28;20876;-72
2022/07/04 05:51:03;;;;;;;4.03;2.50;;;17.00;99.90;;;;;;5010562;28;20459;-72
2022/07/04 05:53:29;;;;;;;4.50;2.70;;;17.00;99.90;;;;;;5011316;28;20667;-72
2022/07/04 05:55:54;;;;;;;5.80;2.87;;;17.20;99.90;;;;;;5010850;28;20786;-72
2022/07/04 05:58:20;;;;;;;5.17;2.80;;;17.20;99.90;;;;;;5008492;28;20540;-72
2022/07/04 06:00:45;;;;;;;6.07;2.33;;;17.20;99.90;;;;;;4975909;28;20686;-72
2022/07/04 06:03:11;;;;;;;3.57;2.00;;;17.20;99.90;;;;;;5008995;28;20472;-72
2022/07/04 06:05:36;;;;;;;6.68;1.90;;;17.20;99.90;;;;;;4975668;28;20492;-72
2022/07/04 06:08:02;;;;;;;2.87;1.80;;;17.20;99.90;;;;;;5008427;28;20671;-72
2022/07/04 06:10:29;;;;;;;5.30;2.00;;;17.20;99.90;;;;;;5008274;28;20678;-71
2022/07/04 06:12:54;;;;;;;5.05;2.15;;;17.20;99.90;;;;;;5006329;28;20678;-72
2022/07/04 06:15:20;;;;;;;4.87;2.20;;;17.30;99.90;;;;;;5003334;28;20780;-71
2022/07/04 06:17:45;;;;;;;4.37;2.20;;;17.30;99.90;;;;;;5004618;28;20478;-71
2022/07/04 06:20:11;;;;;;;4.90;1.85;;;17.30;99.90;;;;;;5003379;28;20418;-72
2022/07/04 06:22:41;;;;;;;3.90;1.70;;;17.30;99.90;;;;;;5003904;28;20599;-72
2022/07/04 06:25:14;;;;;;;5.03;1.67;;;17.40;99.90;;;;;;5006999;28;20754;-72
2022/07/04 06:27:40;;;;;;;4.10;1.75;;;17.40;99.90;;;;;;4976388;28;20554;-72
2022/07/04 06:30:07;;;;;;;4.93;1.50;;;17.40;99.90;;;;;;5009371;28;20449;-72
2022/07/04 06:32:56;;;;;;;3.80;1.52;;;17.50;99.90;;;;;;5008735;28;20405;-72
2022/07/04 06:38:09;;;;;;;3.72;1.40;;;17.40;99.90;;;;;;4987580;28;20669;-74
2022/07/04 06:40:36;;;;;;;5.32;1.80;;;17.50;99.90;;;;;;4977493;28;20501;-72
2022/07/04 06:43:02;;;;;;;4.30;1.42;;;17.60;99.90;;;;;;4977886;28;20902;-72
2022/07/04 06:45:27;;;;;;;4.60;1.90;;;17.60;99.90;;;;;;4979357;28;20384;-72
2022/07/04 06:47:53;;;;;;;5.07;1.58;;;17.80;99.90;;;;;;4978187;28;20405;-73
2022/07/04 06:50:19;;;;;;;4.57;1.60;;;17.80;99.90;;;;;;4994868;28;20419;-72
2022/07/04 06:52:45;;;;;;;4.88;1.60;;;17.80;99.90;;;;;;4977112;28;20429;-73
2022/07/04 06:55:10;;;;;;;4.50;1.77;;;17.80;99.90;;;;;;4976193;28;20388;-73
2022/07/04 06:57:36;;;;;;;3.33;1.55;;;17.80;99.90;;;;;;4975427;28;20716;-73
2022/07/04 07:00:07;;;;;;;4.68;1.52;;;17.90;99.90;;;;;;4975374;28;20589;-73
2022/07/04 07:02:36;;;;;;;4.53;1.70;;;18.00;99.90;;;;;;4991503;28;20392;-72
2022/07/04 07:05:02;;;;;;;4.03;1.43;;;18.00;99.90;;;;;;4973665;28;20419;-73
2022/07/04 07:07:27;;;;;;;3.95;1.67;;;18.00;99.90;;;;;;4974648;28;20692;-72
2022/07/04 07:09:54;;;;;;;4.27;1.40;;;18.20;99.90;;;;;;4978462;28;20385;-73
2022/07/04 07:12:20;;;;;;;6.87;1.63;;;18.00;99.90;;;;;;4980349;28;20587;-72
2022/07/04 07:14:46;;;;;;;4.00;1.40;;;17.90;99.90;;;;;;4981564;28;20381;-73
2022/07/04 07:17:12;;;;;;;3.43;1.40;;;17.80;99.90;;;;;;4983583;28;20658;-73
2022/07/04 07:19:38;;;;;;;4.90;1.20;;;17.80;99.90;;;;;;4982746;28;20688;-73
2022/07/04 07:22:03;;;;;;;3.60;1.38;;;17.80;99.90;;;;;;4998421;28;20613;-73
2022/07/04 07:24:32;;;;;;;3.90;1.30;;;17.80;99.90;;;;;;4980174;28;20602;-73
2022/07/04 07:26:57;;;;;;;5.53;1.40;;;17.90;99.90;;;;;;4979457;28;20685;-73
2022/07/04 07:29:23;;;;;;;5.32;1.48;;;18.00;99.90;;;;;;4977210;28;20385;-73
2022/07/04 07:31:49;;;;;;;3.15;1.15;;;18.10;99.90;;;;;;4980435;28;20392;-73
2022/07/04 07:34:14;;;;;;;3.87;1.50;;;18.20;99.90;;;;;;4978382;28;20611;-72
2022/07/04 07:36:40;;;;;;;4.67;1.43;;;18.30;99.90;;;;;;4978053;28;20552;-72
2022/07/04 07:39:06;;;;;;;5.15;1.58;;;18.30;99.90;;;;;;4978394;28;20763;-72
2022/07/04 07:41:32;;;;;;;4.30;1.48;;;18.20;99.90;;;;;;4979142;28;20544;-73
2022/07/04 07:43:58;;;;;;;6.07;1.35;;;18.20;99.90;;;;;;4982110;28;20496;-73
2022/07/04 07:46:23;;;;;;;2.72;1.23;;;18.10;99.90;;;;;;4981635;28;20388;-72
2022/07/04 07:48:49;;;;;;;3.70;1.20;;;18.30;99.90;;;;;;4980535;28;20518;-71
2022/07/04 07:51:16;;;;;;;3.35;1.10;;;18.40;99.90;;;;;;5005021;28;20496;-72
2022/07/04 07:53:42;;;;;;;3.63;1.20;;;18.30;99.90;;;;;;5003356;28;20870;-72
2022/07/04 07:56:08;;;;;;;2.70;0.98;;;18.20;99.90;;;;;;4987234;28;20403;-72
2022/07/04 07:58:34;;;;;;;3.95;1.20;;;18.40;99.90;;;;;;4985424;28;20396;-72
2022/07/04 08:01:01;;;;;;;2.28;1.20;;;18.40;99.90;;;;;;5003512;28;20416;-71
2022/07/04 08:06:13;;;;;;;2.53;1.08;;;18.40;99.90;;;;;;4996688;28;20566;-72
2022/07/04 08:08:39;;;;;;;3.67;0.88;;;18.40;99.90;;;;;;4985293;28;20385;-71
2022/07/04 08:11:06;;;;;;;1.70;0.70;;;18.50;99.90;;;;;;4990376;28;20415;-71
2022/07/04 08:13:31;;;;;;;4.28;1.05;;;18.60;99.90;;;;;;4990123;28;20393;-71
2022/07/04 08:15:57;;;;;;;3.37;1.00;;;18.60;99.90;;;;;;5006161;28;20477;-71
2022/07/04 08:18:22;;;;;;;1.85;1.00;;;18.80;99.90;;;;;;4988016;28;20401;-71
2022/07/04 08:20:49;;;;;;;5.60;1.27;;;18.60;99.90;;;;;;4989637;28;21189;-71
2022/07/04 08:23:15;;;;;;;2.75;0.93;;;18.80;99.90;;;;;;4990033;28;20381;-70
2022/07/04 08:25:41;;;;;;;5.40;1.05;;;18.90;99.90;;;;;;4987643;28;20396;-72
2022/07/04 08:28:07;;;;;;;2.45;0.82;;;18.90;99.90;;;;;;4989665;28;20499;-72
2022/07/04 08:30:34;;;;;;;3.78;1.10;;;19.00;99.90;;;;;;4990379;28;20701;-71
2022/07/04 08:32:59;;;;;;;3.45;1.05;;;18.80;99.90;;;;;;5005337;28;20512;-72
2022/07/04 08:35:26;;;;;;;2.80;0.93;;;18.70;99.90;;;;;;4988190;28;20483;-72
2022/07/04 08:37:55;;;;;;;2.72;0.90;;;18.80;99.90;;;;;;4988170;28;20425;-72
2022/07/04 08:40:22;;;;;;;2.85;1.00;;;18.80;99.90;;;;;;5025506;28;20709;-72
2022/07/04 08:42:49;;;;;;;4.18;1.10;;;18.80;99.90;;;;;;5015971;28;20470;-72
2022/07/04 08:45:16;;;;;;;3.20;1.10;;;18.80;99.90;;;;;;4984560;28;20433;-73
2022/07/04 08:47:43;;;;;;;1.42;0.70;;;19.00;99.90;;;;;;5015561;28;20398;-72
2022/07/04 08:50:20;;;;;;;2.90;1.10;;;19.10;99.90;;;;;;5016120;28;20847;-71
2022/07/04 08:52:56;;;;;;;3.55;1.02;;;19.30;99.90;;;;;;5013504;28;20390;-72
2022/07/04 09:00:51;;;;;;;4.53;1.45;;;19.30;99.90;;;;;;4982047;28;20406;-73
2022/07/04 09:03:18;;;;;;;4.13;1.10;;;19.10;99.90;;;;;;5013958;28;20394;-71
2022/07/04 09:05:44;;;;;;;2.05;0.90;;;19.20;99.90;;;;;;4978366;28;20482;-71
2022/07/04 09:08:10;;;;;;;1.73;0.90;;;19.00;99.90;;;;;;5008962;28;20528;-71
2022/07/04 09:10:36;;;;;;;4.50;1.15;;;19.10;99.90;;;;;;4974677;28;20737;-72
2022/07/04 09:13:03;;;;;;;2.05;0.75;;;19.30;99.90;;;;;;5007302;28;20441;-72
2022/07/04 09:15:29;;;;;;;1.75;0.80;;;19.30;99.90;;;;;;5008997;28;20486;-72
2022/07/04 09:17:55;;;;;;;2.00;0.87;;;19.40;99.90;;;;;;5007476;28;20398;-73
2022/07/04 09:20:22;;;;;;;2.93;0.90;;;19.30;99.90;;;;;;5006173;28;20418;-72
2022/07/04 09:22:52;;;;;;;3.25;0.90;;;19.40;99.90;;;;;;4973262;28;20608;-74
2022/07/04 09:25:19;;;;;;;2.47;0.90;;;19.40;99.90;;;;;;5004556;28;20463;-74
2022/07/04 09:27:47;;;;;;;2.50;0.95;;;19.50;99.90;;;;;;4974467;28;20489;-73
2022/07/04 09:30:15;;;;;;;1.77;0.80;;;19.50;99.90;;;;;;5004577;28;20527;-74
2022/07/04 09:33:02;;;;;;;3.20;0.70;;;19.50;99.90;;;;;;5003217;28;20934;-71
2022/07/04 09:35:29;;;;;;;2.57;1.00;;;19.60;99.90;;;;;;4974205;28;20678;-72
2022/07/04 09:38:01;;;;;;;1.20;0.73;;;19.50;99.90;;;;;;5007228;28;20657;-71
2022/07/04 09:40:32;;;;;;;2.27;0.90;;;19.50;99.90;;;;;;5009745;28;20469;-71
2022/07/04 09:43:00;;;;;;;2.37;0.90;;;19.50;99.90;;;;;;4978989;28;20386;-72
2022/07/04 09:45:28;;;;;;;2.30;0.95;;;19.60;99.90;;;;;;5011972;28;20571;-72
2022/07/04 09:47:58;;;;;;;2.20;0.80;;;19.50;99.90;;;;;;5010362;28;20399;-71
2022/07/04 09:50:26;;;;;;;3.23;1.17;;;19.50;99.90;;;;;;4979269;28;20828;-72
2022/07/04 09:53:02;;;;;;;1.40;1.00;;;19.50;99.90;;;;;;4979367;28;20714;-72
2022/07/04 09:55:33;;;;;;;1.40;0.90;;;19.60;99.90;;;;;;5013851;28;20477;-72
2022/07/04 09:58:07;;;;;;;2.75;0.93;;;19.70;99.90;;;;;;5013191;28;20471;-72
2022/07/04 10:00:39;;;;;;;2.30;0.90;;;19.70;99.90;;;;;;5014181;28;20751;-72
2022/07/04 10:03:22;;;;;;;2.40;1.00;;;19.70;99.90;;;;;;4980078;28;20781;-72
2022/07/04 10:06:15;;;;;;;4.05;1.02;;;19.80;99.90;;;;;;4981316;28;20395;-72
2022/07/04 10:08:43;;;;;;;3.40;0.98;;;19.90;99.90;;;;;;4982300;28;20804;-71
2022/07/04 10:11:10;;;;;;;2.63;1.25;;;20.00;99.90;;;;;;5012436;28;20414;-72
2022/07/04 10:13:37;;;;;;;2.93;0.90;;;20.10;99.90;;;;;;5015068;28;20449;-72
2022/07/04 10:16:02;;;;;;;1.45;0.60;;;20.10;99.90;;;;;;5014406;28;20390;-72
2022/07/04 10:18:28;;;;;;;1.88;0.80;;;20.00;99.90;;;;;;4983372;28;20468;-72
2022/07/04 10:20:55;;;;;;;4.35;1.20;;;19.90;99.90;;;;;;5017785;28;20413;-72
2022/07/04 10:23:23;;;;;;;2.15;0.70;;;19.90;99.90;;;;;;5020220;28;20417;-72
2022/07/04 10:25:50;;;;;;;2.03;0.73;;;20.00;99.90;;;;;;5021977;28;20457;-72
2022/07/04 10:28:19;;;;;;;2.88;0.75;;;20.00;99.90;;;;;;5020552;28;20422;-72
2022/07/04 10:30:53;;;;;;;1.92;0.68;;;20.10;99.90;;;;;;5021627;28;20398;-71
2022/07/04 10:33:24;;;;;;;2.03;0.95;;;20.20;99.90;;;;;;5020096;28;20409;-72
2022/07/04 10:36:02;;;;;;;2.07;1.00;;;20.40;99.90;;;;;;4986866;28;20485;-71
2022/07/04 10:38:30;;;;;;;2.38;0.68;;;20.60;99.90;;;;;;4984067;28;20422;-71
2022/07/04 10:41:02;;;;;;;2.72;0.77;;;20.40;99.90;;;;;;5014698;28;20469;-71
2022/07/04 10:43:43;;;;;;;1.60;1.00;;;20.30;99.90;;;;;;5014198;28;20385;-71
2022/07/04 10:46:15;;;;;;;1.80;0.90;;;20.50;99.90;;;;;;4995488;28;20383;-72
2022/07/04 10:48:56;;;;;;;1.00;0.73;;;20.50;99.90;;;;;;4995558;28;20442;-72
2022/07/04 10:51:35;;;;;;;2.63;1.00;;;20.20;99.90;;;;;;5014268;28;20785;-71
2022/07/04 10:54:17;;;;;;;2.45;0.80;;;20.10;99.90;;;;;;4981175;28;20392;-72
2022/07/04 10:56:46;;;;;;;2.05;0.82;;;20.20;99.90;;;;;;4981903;28;20414;-71
2022/07/04 10:59:25;;;;;;;2.38;0.82;;;20.20;99.90;;;;;;4983340;28;20395;-71
2022/07/04 11:02:13;;;;;;;3.00;0.88;;;20.30;99.90;;;;;;5011741;28;20509;-71
2022/07/04 11:05:02;;;;;;;2.88;0.70;;;20.40;99.90;;;;;;5011328;28;20394;-71
2022/07/04 11:07:30;;;;;;;1.17;0.47;;;20.50;99.90;;;;;;4997060;28;20999;-71
2022/07/04 11:12:58;;;;;;;1.63;0.70;;;20.60;99.90;;;;;;4982176;28;20406;-70
2022/07/04 11:15:32;;;;;;;2.30;0.85;;;20.80;99.90;;;;;;4983414;28;20464;-70
2022/07/04 11:18:00;;;;;;;3.17;0.63;;;20.80;99.90;;;;;;4996718;28;20794;-71
2022/07/04 11:20:28;;;;;;;2.80;0.93;;;20.90;99.90;;;;;;5013580;28;20530;-71
2022/07/04 11:23:10;;;;;;;1.90;0.80;;;20.90;99.90;;;;;;4984192;28;21006;-71
2022/07/04 11:25:37;;;;;;;1.50;0.55;;;20.80;99.90;;;;;;5013753;28;20806;-71
2022/07/04 11:28:22;;;;;;;1.80;0.70;;;20.90;99.90;;;;;;5013241;28;20391;-71
2022/07/04 11:30:52;;;;;;;2.10;0.77;;;20.90;99.90;;;;;;4996377;28;20383;-71
2022/07/04 11:33:20;;;;;;;1.63;0.73;;;20.70;99.90;;;;;;4980345;28;20464;-72
2022/07/04 11:36:03;;;;;;;1.85;0.70;;;20.70;99.90;;;;;;4981389;28;20394;-73
2022/07/04 11:38:49;;;;;;;1.50;0.70;;;20.70;99.90;;;;;;4996262;28;20424;-72
2022/07/04 11:46:50;;;;;;;2.10;0.88;;;20.70;99.90;;;;;;5001059;28;20395;-72
2022/07/04 11:49:15;;;;;;;2.90;1.00;;;21.00;99.90;;;;;;4983069;28;20393;-72
2022/07/04 11:51:43;;;;;;;2.77;1.17;;;21.30;99.90;;;;;;4980788;28;20688;-72
2022/07/04 11:54:10;;;;;;;3.13;0.90;;;21.70;99.90;;;;;;4980945;28;20388;-72
2022/07/04 11:56:35;;;;;;;3.05;0.77;;;21.90;99.90;;;;;;4982648;28;20951;-72
2022/07/04 11:59:10;;;;;;;5.17;1.00;;;22.10;99.90;;;;;;4985734;28;20399;-72
2022/07/04 12:01:36;;;;;;;1.60;0.90;;;22.00;99.90;;;;;;4985702;28;20409;-72
2022/07/04 12:04:15;;;;;;;2.13;0.70;;;22.00;99.90;;;;;;5002094;28;20419;-72
2022/07/04 12:06:40;;;;;;;2.60;0.80;;;21.80;99.90;;;;;;4988253;28;20376;-72
2022/07/04 12:09:09;;;;;;;2.37;0.70;;;21.80;99.90;;;;;;4986025;28;20389;-72
2022/07/04 12:11:53;;;;;;;3.95;0.90;;;21.80;99.90;;;;;;4986027;28;20389;-72
2022/07/04 12:14:19;;;;;;;1.20;0.57;;;22.00;99.90;;;;;;4985766;28;20392;-73
2022/07/04 12:16:47;;;;;;;3.07;0.90;;;22.40;99.90;;;;;;4987749;28;20688;-72
2022/07/04 12:19:13;;;;;;;2.15;0.68;;;22.60;99.90;;;;;;4985305;28;20431;-73
2022/07/04 12:21:39;;;;;;;2.00;0.80;;;22.70;99.90;;;;;;4985098;28;20745;-72
2022/07/04 12:24:05;;;;;;;4.10;1.10;;;22.80;99.90;;;;;;4984733;28;20377;-72
2022/07/04 12:26:31;;;;;;;1.38;0.70;;;23.00;99.90;;;;;;4999406;28;20381;-73
2022/07/04 12:28:57;;;;;;;1.95;1.05;;;23.10;99.90;;;;;;5000464;28;20388;-72
2022/07/04 12:31:43;;;;;;;1.77;0.70;;;22.90;99.90;;;;;;5002053;28;20408;-72
2022/07/04 12:34:15;;;;;;;1.65;0.77;;;22.70;99.90;;;;;;4986449;28;20397;-72
2022/07/04 12:36:51;;;;;;;1.42;0.63;;;22.60;99.90;;;;;;4988823;28;20454;-72
2022/07/04 12:39:35;;;;;;;2.67;0.80;;;22.20;99.90;;;;;;4985115;28;20820;-72
2022/07/04 12:42:04;;;;;;;1.48;0.90;;;21.90;99.90;;;;;;4983199;28;20408;-72
2022/07/04 12:44:30;;;;;;;1.60;0.80;;;21.80;99.90;;;;;;5017382;28;20461;-73
2022/07/04 12:46:56;;;;;;;2.35;0.80;;;21.70;99.90;;;;;;4980010;28;20509;-73
2022/07/04 12:49:22;;;;;;;4.93;0.88;;;21.70;99.90;;;;;;4976233;28;20409;-73
2022/07/04 12:51:47;;;;;;;4.00;1.00;;;21.80;99.90;;;;;;4977009;28;20417;-72
2022/07/04 12:54:13;;;;;;;2.53;1.00;;;22.10;99.90;;;;;;4995725;28;20661;-72
2022/07/04 12:56:41;;;;;;;1.63;0.70;;;22.60;99.90;;;;;;4978005;28;20466;-72
2022/07/04 12:59:10;;;;;;;2.25;0.80;;;23.10;99.90;;;;;;4978777;28;20389;-72
2022/07/04 13:01:36;;;;;;;3.83;0.93;;;23.20;99.90;;;;;;4977424;28;20396;-72
2022/07/04 13:04:03;;;;;;;1.40;0.70;;;23.00;99.90;;;;;;4997132;28;20389;-72
2022/07/04 13:06:29;;;;;;;3.45;0.93;;;22.90;99.90;;;;;;4978353;28;20476;-72
2022/07/04 13:08:56;;;;;;;3.67;1.08;;;22.80;99.90;;;;;;4979788;28;20489;-72
2022/07/04 13:14:07;;;;;;;1.58;0.80;;;22.70;99.90;;;;;;5012991;28;20575;-71
2022/07/04 13:16:33;;;;;;;4.78;0.90;;;22.70;99.90;;;;;;4996913;28;20715;-71
2022/07/04 13:18:59;;;;;;;2.78;1.00;;;22.60;99.90;;;;;;4996937;28;20398;-71